createdAt,value
2022-09-20T00:46:22.861Z,5.28
2022-09-20T00:49:17.497Z,7.05
2022-09-20T00:52:03.304Z,6.00
2022-09-20T00:54:51.920Z,6.63
2022-09-20T00:57:42.434Z,4.00
2022-09-20T01:00:28.372Z,5.32
2022-09-20T01:46:04.113Z,5.43
2022-09-20T01:48:57.207Z,5.43
2022-09-20T01:52:01.318Z,3.97
2022-09-20T01:55:25.489Z,4.13
2022-09-20T01:58:29.678Z,4.43
2022-09-20T02:46:01.816Z,5.57
2022-09-20T02:49:01.416Z,2.80
2022-09-20T02:51:54.761Z,3.45
2022-09-20T02:54:55.692Z,5.10
2022-09-20T02:58:09.542Z,4.38
2022-09-20T03:46:46.686Z,3.30
2022-09-20T03:49:59.453Z,3.80
2022-09-20T03:53:22.332Z,3.55
2022-09-20T03:56:25.600Z,3.35
2022-09-20T03:59:21.286Z,4.00
2022-09-20T04:02:46.505Z,3.85
2022-09-20T04:05:47.672Z,5.40
2022-09-20T04:08:40.045Z,2.70
2022-09-20T04:11:44.477Z,4.97
2022-09-20T04:15:03.103Z,4.60
2022-09-20T04:30:55.403Z,4.10
2022-09-20T04:33:46.100Z,4.95
2022-09-20T04:36:59.391Z,4.27
2022-09-20T04:39:59.579Z,4.68
2022-09-20T04:43:23.455Z,4.65
2022-09-20T04:46:35.723Z,4.70
2022-09-20T04:49:33.870Z,4.72
2022-09-20T04:52:25.619Z,6.30
2022-09-20T04:55:23.476Z,3.80
2022-09-20T04:58:12.495Z,4.75
2022-09-20T05:01:19.863Z,4.57
2022-09-20T05:04:31.789Z,5.45
2022-09-20T05:07:23.812Z,4.80
2022-09-20T05:10:51.151Z,4.72
2022-09-20T05:14:08.303Z,5.45
2022-09-20T05:17:25.688Z,5.53
2022-09-20T05:21:01.565Z,4.20
2022-09-20T05:23:53.085Z,3.83
2022-09-20T05:26:57.318Z,4.45
2022-09-20T05:30:18.919Z,4.82
2022-09-20T05:33:16.045Z,5.35
2022-09-20T05:36:27.743Z,3.63
2022-09-20T05:39:34.192Z,4.13
2022-09-20T05:42:34.452Z,2.95
2022-09-20T05:46:01.434Z,5.20
2022-09-20T05:49:18.657Z,4.45
2022-09-20T05:52:22.743Z,3.83
2022-09-20T05:55:29.052Z,4.37
2022-09-20T05:58:52.185Z,6.75
2022-09-20T06:01:46.498Z,4.43
2022-09-20T06:04:31.938Z,4.30
2022-09-20T06:07:17.308Z,5.28
2022-09-20T06:10:18.708Z,5.13
2022-09-20T06:13:52.991Z,5.70
2022-09-20T06:17:10.686Z,6.13
2022-09-20T06:20:15.118Z,6.15
2022-09-20T06:23:03.432Z,5.38
2022-09-20T06:26:01.989Z,5.90
2022-09-20T06:28:54.234Z,4.97
2022-09-20T06:31:43.078Z,4.22
2022-09-20T06:34:29.149Z,5.70
2022-09-20T06:37:54.525Z,3.63
2022-09-20T06:41:06.607Z,4.37
2022-09-20T06:43:51.613Z,3.58
2022-09-20T06:46:36.891Z,4.70
2022-09-20T06:49:22.812Z,3.55
2022-09-20T06:52:14.109Z,4.60
2022-09-20T06:55:00.104Z,5.03
2022-09-20T06:57:45.998Z,5.22
2022-09-20T07:00:31.209Z,5.43
2022-09-20T07:03:20.044Z,3.60
2022-09-20T07:06:06.218Z,7.15
2022-09-20T07:08:51.718Z,4.20
2022-09-20T07:11:37.459Z,6.05
2022-09-20T07:14:23.360Z,3.72
2022-09-20T07:17:08.689Z,7.68
2022-09-20T07:19:53.804Z,4.05
2022-09-20T07:22:39.210Z,3.23
2022-09-20T07:25:25.179Z,3.75
2022-09-20T07:28:10.953Z,3.63
2022-09-20T07:30:56.557Z,4.75
2022-09-20T07:33:41.866Z,3.33
2022-09-20T07:36:27.382Z,5.90
2022-09-20T07:39:13.257Z,3.47
2022-09-20T07:41:58.591Z,3.35
2022-09-20T07:44:44.575Z,3.53
2022-09-20T07:47:32.138Z,3.42
2022-09-20T07:50:19.586Z,3.30
2022-09-20T07:53:05.182Z,5.45
2022-09-20T07:56:06.093Z,3.38
2022-09-20T07:58:52.557Z,3.17
2022-09-20T08:01:41.965Z,3.97
2022-09-20T08:04:29.408Z,2.47
2022-09-20T08:07:15.532Z,4.30
2022-09-20T08:10:03.759Z,3.95
2022-09-20T08:16:07.573Z,3.03
2022-09-20T08:18:58.892Z,2.33
2022-09-20T08:21:45.293Z,2.72
2022-09-20T08:24:30.575Z,2.42
2022-09-20T08:27:19.022Z,3.13
2022-09-20T08:30:06.395Z,3.88
2022-09-20T08:32:53.718Z,3.27
2022-09-20T08:35:39.346Z,3.75
2022-09-20T08:41:39.087Z,3.85
2022-09-20T08:44:59.492Z,2.97
2022-09-20T08:47:53.299Z,3.77
2022-09-20T08:50:52.072Z,4.57
2022-09-20T08:53:49.133Z,3.78
2022-09-20T08:56:46.769Z,4.43
2022-09-20T08:59:32.867Z,3.80
2022-09-20T09:02:22.774Z,4.07
2022-09-20T09:05:23.870Z,4.53
2022-09-20T09:08:19.212Z,4.13
2022-09-20T09:11:09.654Z,3.30
2022-09-20T09:14:27.076Z,3.42
2022-09-20T09:17:16.971Z,4.10
2022-09-20T09:20:23.638Z,4.25
2022-09-20T09:23:21.458Z,3.72
2022-09-20T09:26:24.849Z,4.32
2022-09-20T09:29:22.929Z,4.43
2022-09-20T09:32:40.919Z,4.53
2022-09-20T09:35:37.603Z,6.25
2022-09-20T09:39:16.718Z,6.78
2022-09-20T09:42:34.176Z,7.20
2022-09-20T09:45:36.118Z,5.15
2022-09-20T09:49:02.377Z,7.23
2022-09-20T09:52:13.257Z,7.00
2022-09-20T09:55:03.137Z,6.40
2022-09-20T09:58:07.770Z,7.03
2022-09-20T10:00:55.255Z,8.93
2022-09-20T10:03:49.606Z,4.57
2022-09-20T10:07:06.652Z,7.18
2022-09-20T10:09:58.367Z,7.25
2022-09-20T10:13:12.891Z,5.82
2022-09-20T10:16:29.278Z,5.03
2022-09-20T10:19:48.899Z,5.53
2022-09-20T10:23:29.938Z,5.47
2022-09-20T10:26:16.627Z,5.68
2022-09-20T10:29:32.286Z,5.40
2022-09-20T10:32:51.308Z,6.22
2022-09-20T10:36:14.562Z,5.77
2022-09-20T10:39:11.081Z,5.43
2022-09-20T10:42:40.520Z,6.28
2022-09-20T10:49:03.584Z,4.93
2022-09-20T10:52:30.964Z,4.53
2022-09-20T10:55:54.417Z,4.93
2022-09-20T11:02:35.718Z,4.95
2022-09-20T11:05:50.897Z,3.63
2022-09-20T11:08:38.509Z,4.60
2022-09-20T11:11:32.205Z,4.40
2022-09-20T11:14:32.635Z,4.05
2022-09-20T11:17:33.058Z,4.70
2022-09-20T11:20:23.969Z,3.28
2022-09-20T11:23:17.422Z,3.87
2022-09-20T11:26:21.303Z,5.75
2022-09-20T11:29:18.004Z,3.83
2022-09-20T11:32:24.877Z,4.78
2022-09-20T11:35:10.934Z,4.35
2022-09-20T11:38:31.588Z,3.73
2022-09-20T11:41:39.109Z,4.97
2022-09-20T11:44:44.998Z,3.13
2022-09-20T11:47:55.985Z,5.05
2022-09-20T11:51:04.811Z,3.63
2022-09-20T11:54:09.331Z,4.90
2022-09-20T11:57:01.327Z,4.63
2022-09-20T12:00:11.569Z,2.83
2022-09-20T12:03:07.669Z,3.70
2022-09-20T12:06:21.386Z,3.58
2022-09-20T12:09:38.260Z,3.33
2022-09-20T12:13:22.769Z,3.72
2022-09-20T12:16:14.950Z,4.13
2022-09-20T12:19:04.423Z,4.75
2022-09-20T12:21:58.995Z,4.78
2022-09-20T12:24:45.609Z,4.33
2022-09-20T12:27:34.646Z,4.53
2022-09-20T12:30:22.371Z,4.78
2022-09-20T12:33:20.336Z,4.32
2022-09-20T12:36:19.437Z,3.95
2022-09-20T12:39:24.181Z,6.17
2022-09-20T12:42:17.701Z,3.35
2022-09-20T12:45:15.748Z,6.45
2022-09-20T12:48:01.191Z,5.57
2022-09-20T12:51:47.359Z,5.03
2022-09-20T12:54:34.087Z,6.67
2022-09-20T12:57:32.189Z,6.47
2022-09-20T13:00:32.037Z,6.72
2022-09-20T13:03:36.477Z,6.70
2022-09-20T13:09:37.755Z,7.17
2022-09-20T13:12:23.514Z,6.47
2022-09-20T13:15:18.920Z,7.15
2022-09-20T13:18:05.921Z,6.22
2022-09-20T13:20:51.860Z,7.03
2022-09-20T13:23:57.369Z,6.10
2022-09-20T13:26:47.187Z,6.90
2022-09-20T13:29:47.719Z,7.10
2022-09-20T13:32:34.619Z,7.15
2022-09-20T13:35:32.590Z,7.00
2022-09-20T13:38:25.178Z,8.17
2022-09-20T13:41:14.229Z,7.70
2022-09-20T13:44:01.086Z,6.72
2022-09-20T13:46:46.737Z,6.93
2022-09-20T13:49:32.568Z,5.60
2022-09-20T13:52:28.829Z,11.07
2022-09-20T13:55:28.740Z,11.23
2022-09-20T13:58:17.626Z,11.40
2022-09-20T14:01:09.513Z,10.25
2022-09-20T14:04:17.694Z,10.40
2022-09-20T14:07:08.478Z,9.07
2022-09-20T14:09:55.036Z,8.95
2022-09-20T14:12:40.952Z,7.50
2022-09-20T14:15:33.783Z,8.55
2022-09-20T14:18:22.568Z,10.05
2022-09-20T14:21:09.972Z,7.97
2022-09-20T14:24:03.043Z,6.90
2022-09-20T14:27:19.997Z,5.82
2022-09-20T14:30:07.427Z,4.93
2022-09-20T14:32:55.842Z,5.55
2022-09-20T14:35:50.756Z,3.77
2022-09-20T14:38:39.878Z,5.22
2022-09-20T14:41:42.258Z,6.75
2022-09-20T14:44:37.638Z,4.82
2022-09-20T14:47:28.578Z,4.18
2022-09-20T14:50:27.903Z,5.17
2022-09-20T14:53:19.721Z,7.07
2022-09-20T14:56:05.090Z,4.38
2022-09-20T14:59:11.786Z,4.10
2022-09-20T15:02:03.628Z,4.40
2022-09-20T15:04:55.518Z,4.10
2022-09-20T15:07:41.924Z,4.05
2022-09-20T15:10:28.625Z,4.65
2022-09-20T15:13:14.372Z,3.80
2022-09-20T15:16:02.735Z,3.72
2022-09-20T15:18:56.524Z,4.10
2022-09-20T15:21:45.628Z,5.55
2022-09-20T15:24:34.710Z,3.75
2022-09-20T15:27:21.599Z,5.93
2022-09-20T15:30:10.276Z,3.90
2022-09-20T15:32:59.694Z,4.30
2022-09-20T15:35:48.961Z,5.30
2022-09-20T15:38:34.581Z,5.10
2022-09-20T15:41:21.425Z,4.78
2022-09-20T15:44:08.128Z,5.18
2022-09-20T15:46:53.743Z,8.30
2022-09-20T15:49:47.060Z,3.67
2022-09-20T15:52:42.416Z,4.93
2022-09-20T15:55:27.902Z,4.43
2022-09-20T15:58:14.161Z,4.88
2022-09-20T16:01:05.237Z,4.50
2022-09-20T16:03:51.240Z,6.13
2022-09-20T16:06:37.874Z,5.45
2022-09-20T16:09:25.759Z,4.10
2022-09-20T16:12:11.099Z,3.28
2022-09-20T16:14:56.925Z,3.90
2022-09-20T16:18:01.016Z,3.70
2022-09-20T16:20:46.349Z,2.90
2022-09-20T16:23:31.924Z,4.47
2022-09-20T16:26:19.656Z,3.42
2022-09-20T16:29:07.317Z,4.30
2022-09-20T16:31:54.361Z,3.60
2022-09-20T16:34:40.150Z,3.80
2022-09-20T16:37:26.601Z,2.88
2022-09-20T16:40:14.145Z,3.72
2022-09-20T16:42:59.923Z,4.40
2022-09-20T16:45:45.564Z,5.32
2022-09-20T16:48:32.166Z,3.15
2022-09-20T16:51:25.327Z,3.50
2022-09-20T16:54:13.537Z,4.00
2022-09-20T16:57:00.373Z,2.63
2022-09-20T16:59:46.727Z,3.63
2022-09-20T17:02:32.123Z,3.97
2022-09-20T17:05:17.614Z,2.90
2022-09-20T17:08:03.752Z,3.00
2022-09-20T17:10:49.861Z,3.00
2022-09-20T17:13:42.690Z,4.00
2022-09-20T17:16:34.838Z,4.10
2022-09-20T17:19:34.046Z,3.03
2022-09-20T17:22:36.573Z,6.78
2022-09-20T17:30:43.931Z,3.65
2022-09-20T17:39:05.662Z,3.20
2022-09-20T17:41:59.809Z,2.83
2022-09-20T18:14:56.887Z,4.13
2022-09-20T18:17:42.031Z,3.45
2022-09-20T18:20:27.420Z,2.80
2022-09-20T18:23:12.743Z,2.33
2022-09-20T18:26:16.595Z,3.60
2022-09-20T18:29:12.279Z,4.05
2022-09-20T18:31:59.599Z,3.97
2022-09-20T18:34:44.764Z,3.17
2022-09-20T18:37:30.685Z,5.13
2022-09-20T18:40:16.091Z,2.92
2022-09-20T18:43:04.717Z,2.97
2022-09-20T18:45:54.230Z,3.50
2022-09-20T18:48:40.149Z,4.22
2022-09-20T18:51:28.545Z,4.00
2022-09-20T18:54:14.887Z,4.90
2022-09-20T18:57:00.273Z,3.50
2022-09-20T18:59:53.996Z,4.28
2022-09-20T19:02:53.987Z,2.95
2022-09-20T19:05:46.517Z,3.77
2022-09-20T19:08:37.075Z,6.57
2022-09-20T19:11:39.140Z,3.58
2022-09-20T19:14:42.314Z,3.80
2022-09-20T19:17:50.386Z,6.43
2022-09-20T19:21:13.471Z,5.17
2022-09-20T19:24:31.525Z,3.67
2022-09-20T19:27:17.191Z,6.20
2022-09-20T19:30:03.081Z,5.85
2022-09-20T19:32:48.601Z,5.72
2022-09-20T19:35:38.967Z,4.97
2022-09-20T19:39:02.270Z,5.10
2022-09-20T19:42:03.848Z,5.05
2022-09-20T19:45:07.170Z,8.10
2022-09-20T19:48:06.009Z,4.00
2022-09-20T19:50:54.679Z,4.67
2022-09-20T19:54:05.349Z,4.13
2022-09-20T19:56:55.983Z,2.95
2022-09-20T19:59:41.565Z,3.80
2022-09-20T20:02:26.897Z,3.53
2022-09-20T20:05:19.972Z,4.97
2022-09-20T20:08:13.980Z,4.43
2022-09-20T20:11:35.923Z,3.65
2022-09-20T20:14:29.880Z,4.20
2022-09-20T20:17:48.075Z,9.85
2022-09-20T20:20:51.380Z,11.17
2022-09-20T20:23:53.591Z,8.88
2022-09-20T20:26:38.851Z,9.48
2022-09-20T20:29:23.846Z,7.28
2022-09-20T20:32:09.239Z,8.80
2022-09-20T20:34:54.365Z,6.37
2022-09-20T20:37:39.888Z,5.60
2022-09-20T20:40:24.861Z,6.95
2022-09-20T20:43:10.245Z,9.35
2022-09-20T20:45:55.467Z,4.88
2022-09-20T20:48:40.624Z,5.90
2022-09-20T20:51:27.329Z,7.78
2022-09-20T20:54:12.697Z,6.47
2022-09-20T20:56:58.647Z,6.35
2022-09-20T20:59:43.627Z,6.00
2022-09-20T21:02:28.556Z,7.10
2022-09-20T21:05:15.107Z,11.32
2022-09-20T21:08:00.333Z,6.40
2022-09-20T21:10:45.598Z,9.52
2022-09-20T21:13:31.174Z,7.80
2022-09-20T21:16:25.061Z,7.70
2022-09-20T21:19:14.643Z,6.80
2022-09-20T21:21:59.721Z,6.32
2022-09-20T21:24:45.435Z,5.60
2022-09-20T21:27:30.924Z,7.32
2022-09-20T21:30:16.533Z,5.00
2022-09-20T21:33:01.966Z,6.57
2022-09-20T21:35:47.465Z,6.55
2022-09-20T21:38:35.497Z,8.45
2022-09-20T21:41:23.264Z,7.93
2022-09-20T21:44:10.617Z,8.37
2022-09-20T21:46:55.416Z,6.95
2022-09-20T21:49:40.349Z,7.05
2022-09-20T21:52:26.007Z,6.72
2022-09-20T21:55:11.123Z,7.28
2022-09-20T21:57:55.953Z,6.97
2022-09-20T22:00:40.965Z,8.10
2022-09-20T22:03:30.064Z,10.13
2022-09-20T22:06:20.806Z,8.77
2022-09-20T22:09:17.611Z,6.07
2022-09-20T22:12:02.500Z,8.47
2022-09-20T22:14:47.427Z,5.70
2022-09-20T22:17:32.264Z,6.00
2022-09-20T22:20:17.210Z,17.02
2022-09-20T22:23:02.674Z,8.88
2022-09-20T22:25:47.846Z,7.30
2022-09-20T22:28:32.939Z,6.32
2022-09-20T22:31:20.885Z,7.07
2022-09-20T22:34:10.351Z,5.65
2022-09-20T22:36:55.242Z,6.47
2022-09-20T22:39:40.489Z,4.57
2022-09-20T22:42:25.904Z,6.10
2022-09-20T22:45:11.146Z,8.32
2022-09-20T22:47:56.530Z,10.23
2022-09-20T22:50:42.453Z,10.52
2022-09-20T22:53:29.671Z,10.43
2022-09-20T22:56:21.563Z,12.30
2022-09-20T22:59:12.897Z,11.50
2022-09-20T23:46:15.555Z,16.17
2022-09-20T23:49:01.309Z,15.40
2022-09-20T23:51:48.422Z,16.70
2022-09-20T23:54:36.473Z,15.37
2022-09-20T23:57:31.129Z,15.82
